Cetus — WDJ5269 — position and weather

sailwx.info

Track history (hours):
 
Tides and Currents Weather Stations Pressure Air Temp Water Temp Dewpoint Dewpoint Depression Visibility Wind Speed Wind Dir Waves Ship Positions

Cetus

Owner: San Francisco Bay Area Water Emergency Transportation Authorithy, San Francisco, CA. More information available from US FCC via Universal Licensing System and Coast Guard Vessel Documentation Center.

Last reported at 2018-May-23 01:31 UTC. Time now 2018-May-23 01:35 UTC.
Position N 37°48' W 122°19'.

Length 41 m; draft 2 m.

Type: Passenger vessel. MMSI: 367786010.

Date/timePositionNaut miles runAvg speedWind from/ knotsBaromVisibWave heightAir tempDewpointWater temp
2018-May-23 01:31N 37°48' W 122°19'1 2.2
2018-May-23 01:00N 37°47' W 122°18'5 9.2
2018-May-23 00:29N 37°48' W 122°24'511.0
2018-May-23 00:01N 37°48' W 122°17'510.4
2018-May-22 23:30N 37°48' W 122°24'4 8.8
2018-May-22 23:00N 37°48' W 122°18'0 0.2
2018-May-22 22:31N 37°47' W 122°18'4 8.6
2018-May-22 22:00N 37°48' W 122°23'1 2.4
2018-May-22 21:30N 37°49' W 122°25'611.6
2018-May-22 21:01N 37°48' W 122°18'0 0.2
2018-May-22 20:30N 37°47' W 122°18'2 3.2
2018-May-22 20:01N 37°48' W 122°20'4 8.3
2018-May-22 19:30N 37°49' W 122°25'2 4.4
2018-May-22 19:00N 37°48' W 122°22'4 7.2
2018-May-22 18:30N 37°47' W 122°18'5 9.2
2018-May-22 18:01N 37°48' W 122°23'1 2.5
2018-May-22 17:31N 37°49' W 122°25'1 2.6
2018-May-22 17:00N 37°48' W 122°24'5 9.3
2018-May-22 16:30N 37°47' W 122°18'1 1.5
2018-May-22 16:00N 37°48' W 122°19'1 1.9
2018-May-22 15:30N 37°48' W 122°20'1 2.6
2018-May-22 15:00N 37°48' W 122°18'4 7.8
2018-May-22 14:30N 37°48' W 122°23'510.1
2018-May-22 14:00N 37°48' W 122°17'4 8.3
2018-May-22 13:30N 37°48' W 122°22'3 6.8
2018-May-22 13:00N 37°47' W 122°18'1 2.7
2018-May-22 12:30N 37°48' W 122°19'4 8.7
2018-May-22 12:00N 37°49' W 122°25'0 0.0
2018-May-22 05:29N 37°49' W 122°25'613.2
2018-May-22 05:00N 37°48' W 122°17'510.1
2018-May-22 04:29N 37°48' W 122°24'3 7.1
2018-May-22 04:01N 37°48' W 122°19'2 3.9
2018-May-22 03:30N 37°48' W 122°17'0 0.0
2018-May-22 03:00N 37°48' W 122°17'0 0.0
2018-May-22 02:30N 37°48' W 122°17'4 8.9
2018-May-22 02:01N 37°48' W 122°22'2 4.5
2018-May-22 01:30N 37°48' W 122°20'1 2.7
2018-May-22 01:00N 37°47' W 122°18'5 9.0
2018-May-22 00:30N 37°48' W 122°24'510.2
2018-May-22 00:00N 37°48' W 122°17'510.3
2018-May-21 23:30N 37°48' W 122°24'3 6.8
2018-May-21 23:01N 37°48' W 122°19'1 2.5
2018-May-21 22:31N 37°47' W 122°18'4 8.9
2018-May-21 22:00N 37°48' W 122°23'0 0.1
2018-May-21 17:41N 37°48' W 122°24'1 5.4
2018-May-21 17:30N 37°49' W 122°25'0 0.7
2018-May-21 17:01N 37°49' W 122°24'510.5
2018-May-21 16:30N 37°47' W 122°18'0 0.2
2018-May-21 16:01N 37°48' W 122°18'3 5.7
2018-May-21 15:31N 37°48' W 122°21'3 5.2
2018-May-21 15:01N 37°48' W 122°18'4 8.0
2018-May-21 14:31N 37°48' W 122°23'510.1
2018-May-21 14:01N 37°48' W 122°17'3 6.3
2018-May-21 13:30N 37°48' W 122°21'2 4.9
2018-May-21 13:00N 37°47' W 122°18'4 7.1
2018-May-21 12:31N 37°48' W 122°22'2 4.3
2018-May-21 12:00N 37°49' W 122°25'0 0.0
2018-May-21 06:56N 37°49' W 122°25'0 0.0
2018-May-21 06:30N 37°49' W 122°25'612.7
2018-May-21 06:00N 37°48' W 122°17'510.6
2018-May-21 05:30N 37°48' W 122°24'1 2.9
2018-May-21 05:01N 37°49' W 122°25'612.2
2018-May-21 04:30N 37°48' W 122°17'2 3.9
2018-May-21 04:00N 37°48' W 122°20'4 8.0
2018-May-21 03:30N 37°49' W 122°25'612.3
2018-May-21 03:00N 37°48' W 122°17'1 2.3
2018-May-21 02:31N 37°48' W 122°19'5 9.7
2018-May-21 02:00N 37°49' W 122°25'0 0.0
2018-May-21 01:30N 37°49' W 122°25'0 0.0
2018-May-21 01:00N 37°49' W 122°25'3 6.0
2018-May-21 00:30N 37°48' W 122°21'3 5.5
2018-May-21 00:00N 37°47' W 122°18'5 9.2
2018-May-20 23:30N 37°48' W 122°24'1 2.8
2018-May-20 23:00N 37°49' W 122°25'0 0.3
2018-May-20 22:30N 37°49' W 122°25'0 0.0
2018-May-20 22:00N 37°49' W 122°25'1 2.3
2018-May-20 21:30N 37°48' W 122°23'5 9.7
2018-May-20 21:01N 37°48' W 122°17'1 1.1
2018-May-20 20:30N 37°47' W 122°18'510.9
2018-May-20 20:00N 37°49' W 122°25'0 0.0
2018-May-20 19:30N 37°49' W 122°25'0 0.0
2018-May-20 19:00N 37°49' W 122°25'1 2.6
2018-May-20 18:30N 37°48' W 122°24'510.6
2018-May-20 18:00N 37°48' W 122°17'2 3.8
2018-May-20 17:31N 37°48' W 122°19'4 8.8
2018-May-20 17:00N 37°49' W 122°25'1 1.5
2018-May-20 16:30N 37°49' W 122°24'611.3
2018-May-20 16:00N 37°48' W 122°17'612.7
2018-May-20 15:30N 37°49' W 122°25'0 0.0
2018-May-20 06:38N 37°49' W 122°25'0 0.1
2018-May-20 06:30N 37°49' W 122°25'612.9
2018-May-20 06:00N 37°48' W 122°17'510.3
2018-May-20 05:29N 37°48' W 122°24'1 2.6
2018-May-20 05:01N 37°49' W 122°24'611.7
2018-May-20 04:30N 37°48' W 122°17'3 5.9
2018-May-20 04:01N 37°48' W 122°21'3 6.8
2018-May-20 03:30N 37°49' W 122°25'612.6
2018-May-20 03:01N 37°48' W 122°17'2 3.8
2018-May-20 02:30N 37°48' W 122°19'4 8.8
2018-May-20 02:00N 37°49' W 122°25'0 0.0
2018-May-20 01:30N 37°49' W 122°25'0 0.0
2018-May-20 01:00N 37°49' W 122°25'4 7.9
2018-May-20 00:30N 37°48' W 122°20'2 4.1
2018-May-20 00:00N 37°48' W 122°17'5 9.9
2018-May-19 23:30N 37°48' W 122°24'2 3.3
2018-May-19 23:00N 37°49' W 122°25'0 0.8
2018-May-19 22:30N 37°49' W 122°25'0 0.0
2018-May-19 22:00N 37°49' W 122°25'1 2.6
2018-May-19 21:30N 37°48' W 122°24'510.6
2018-May-19 21:01N 37°48' W 122°17'2 4.4
2018-May-19 20:31N 37°48' W 122°20'4 8.3
2018-May-19 20:01N 37°49' W 122°25'0 0.0
2018-May-19 19:30N 37°49' W 122°25'0 0.0
2018-May-19 19:00N 37°49' W 122°25'1 2.6
2018-May-19 18:30N 37°48' W 122°23'510.5
2018-May-19 18:00N 37°48' W 122°17'1 2.5
2018-May-19 17:31N 37°48' W 122°18'510.3
2018-May-19 17:00N 37°49' W 122°25'2 4.6
2018-May-19 16:30N 37°48' W 122°22'4 8.2
2018-May-19 16:00N 37°48' W 122°17'612.8
2018-May-19 15:31N 37°49' W 122°25'0 0.0
2018-May-19 05:43N 37°49' W 122°25'210.4
2018-May-19 05:30N 37°48' W 122°22'4 8.4
2018-May-19 05:00N 37°48' W 122°17'510.5
2018-May-19 04:30N 37°48' W 122°24'3 6.4
2018-May-19 04:00N 37°48' W 122°20'2 4.4
2018-May-19 03:31N 37°48' W 122°17'0 0.0
2018-May-19 03:00N 37°48' W 122°17'0 0.8
2018-May-19 02:29N 37°48' W 122°17'510.2
2018-May-19 02:00N 37°48' W 122°24'510.4
2018-May-19 01:30N 37°48' W 122°17'3 5.9
2018-May-19 01:01N 37°48' W 122°20'1 1.8
2018-May-19 00:31N 37°48' W 122°19'1 2.7
2018-May-19 00:00N 37°47' W 122°18'5 9.2
2018-May-18 23:30N 37°48' W 122°24'5 9.9
2018-May-18 23:00N 37°48' W 122°17'1 1.3
2018-May-18 22:30N 37°48' W 122°18'4 8.5
2018-May-18 22:00N 37°48' W 122°24'1 2.6
2018-May-18 21:30N 37°49' W 122°25'0 0.0
2018-May-18 21:00N 37°49' W 122°25'0 0.0
2018-May-18 20:30N 37°49' W 122°25'0 0.0
2018-May-18 20:00N 37°49' W 122°25'0 0.0
2018-May-18 19:30N 37°49' W 122°25'0 0.0
2018-May-18 19:00N 37°49' W 122°25'1 2.6
2018-May-18 18:30N 37°48' W 122°24'510.6
2018-May-18 18:00N 37°48' W 122°17'510.6
2018-May-18 17:30N 37°48' W 122°24'0 0.0
2018-May-18 17:00N 37°48' W 122°24'4 8.4
2018-May-18 16:31N 37°48' W 122°18'0 0.7
2018-May-18 16:01N 37°48' W 122°18'3 5.2
2018-May-18 15:31N 37°48' W 122°21'1 2.8
2018-May-18 15:01N 37°48' W 122°19'3 6.0
2018-May-18 14:30N 37°48' W 122°23'510.1
2018-May-18 14:00N 37°48' W 122°17'4 7.2
2018-May-18 13:30N 37°48' W 122°21'3 6.0
2018-May-18 13:00N 37°47' W 122°18'611.3
2018-May-18 12:30N 37°49' W 122°25'0 0.5
2018-May-18 12:00N 37°49' W 122°25'0 0.0
2018-May-18 05:33N 37°49' W 122°25'0 0.0
2018-May-18 05:30N 37°49' W 122°25'612.7
2018-May-18 05:00N 37°48' W 122°17'510.5
2018-May-18 04:30N 37°48' W 122°24'3 6.5
2018-May-18 04:01N 37°48' W 122°19'2 4.1
2018-May-18 03:30N 37°48' W 122°17'0 0.0
2018-May-18 03:00N 37°48' W 122°17'0 0.0
2018-May-18 02:30N 37°48' W 122°17'4 8.7
2018-May-18 02:00N 37°48' W 122°22'4 8.0
2018-May-18 01:30N 37°48' W 122°17'1 1.4
2018-May-18 01:01N 37°48' W 122°18'4 7.9
2018-May-18 00:31N 37°48' W 122°23'4 8.8
2018-May-18 00:01N 37°48' W 122°18'5 9.4
2018-May-17 23:30N 37°48' W 122°24'5 9.3
2018-May-17 23:00N 37°48' W 122°18'0 0.6
2018-May-17 22:31N 37°47' W 122°18'4 8.5
2018-May-17 22:01N 37°48' W 122°23'0 0.1
2018-May-17 17:10N 37°48' W 122°24'0 2.4
2018-May-17 17:00N 37°48' W 122°23'5 9.0
2018-May-17 16:30N 37°47' W 122°18'1 1.3
2018-May-17 16:00N 37°48' W 122°19'3 5.7
2018-May-17 15:30N 37°48' W 122°22'3 6.2
2018-May-17 15:00N 37°47' W 122°18'4 8.1
2018-May-17 14:30N 37°48' W 122°23'510.2
2018-May-17 14:00N 37°48' W 122°17'3 6.9
2018-May-17 13:30N 37°48' W 122°21'3 5.5
2018-May-17 13:00N 37°47' W 122°18'3 5.1
2018-May-17 12:30N 37°48' W 122°21'3 6.2
2018-May-17 12:00N 37°49' W 122°25'0 0.0
2018-May-17 05:26N 37°49' W 122°25'614.8
2018-May-17 05:01N 37°48' W 122°17'510.6
2018-May-17 04:30N 37°48' W 122°24'3 6.2
2018-May-17 04:00N 37°48' W 122°20'2 4.5
2018-May-17 03:30N 37°48' W 122°17'0 0.0
2018-May-17 03:00N 37°48' W 122°17'0 0.0
2018-May-17 02:30N 37°48' W 122°17'4 8.4
2018-May-17 02:01N 37°48' W 122°22'2 4.0
2018-May-17 01:31N 37°48' W 122°20'1 2.8
2018-May-17 01:00N 37°47' W 122°18'4 8.9
2018-May-17 00:30N 37°48' W 122°24'510.7
2018-May-17 00:00N 37°48' W 122°17'510.1
2018-May-16 23:30N 37°48' W 122°23'4 8.0
2018-May-16 23:00N 37°48' W 122°18'0 0.7
2018-May-16 22:31N 37°48' W 122°19'4 7.7
2018-May-16 22:01N 37°48' W 122°23'1 1.0
2018-May-16 21:31N 37°48' W 122°23'5 9.9
2018-May-16 21:00N 37°48' W 122°17'1 1.2
2018-May-16 20:30N 37°47' W 122°18'4 8.1
2018-May-16 20:01N 37°48' W 122°23'2 3.5
2018-May-16 19:29N 37°49' W 122°25'0 0.0
2018-May-16 19:00N 37°49' W 122°25'1 2.7
2018-May-16 18:30N 37°48' W 122°24'510.6
2018-May-16 18:00N 37°48' W 122°17'510.2
2018-May-16 17:29N 37°48' W 122°24'0 0.0
2018-May-16 17:00N 37°48' W 122°24'5 9.0
2018-May-16 16:30N 37°48' W 122°18'0 0.0
2018-May-16 16:01N 37°48' W 122°18'3 5.6
2018-May-16 15:31N 37°48' W 122°21'2 3.9
2018-May-16 15:00N 37°48' W 122°19'3 6.4
2018-May-16 14:30N 37°48' W 122°23'5 9.5
2018-May-16 14:00N 37°48' W 122°17'4 7.2
2018-May-16 13:31N 37°48' W 122°21'3 5.6
2018-May-16 13:00N 37°47' W 122°18'5 9.3
2018-May-16 12:31N 37°49' W 122°23'1 2.1
2018-May-16 12:00N 37°49' W 122°25'0 0.0
2018-May-16 11:30N 37°49' W 122°25'0 0.0
2018-May-16 05:24N 37°49' W 122°25'616.1
2018-May-16 05:00N 37°48' W 122°17'510.6
2018-May-16 04:30N 37°48' W 122°24'3 5.8
2018-May-16 04:00N 37°48' W 122°20'2 4.9
2018-May-16 03:31N 37°48' W 122°17'0 0.0
2018-May-16 03:00N 37°48' W 122°17'0 0.0
2018-May-16 02:30N 37°48' W 122°17'4 8.5
2018-May-16 02:01N 37°48' W 122°22'3 5.5
2018-May-16 01:30N 37°48' W 122°19'1 1.6
2018-May-16 01:00N 37°47' W 122°18'5 9.2
2018-May-16 00:30N 37°48' W 122°24'510.7
2018-May-16 00:01N 37°48' W 122°17'510.6
2018-May-15 23:30N 37°48' W 122°24'3 5.5
2018-May-15 23:01N 37°48' W 122°20'2 3.8
2018-May-15 22:30N 37°47' W 122°18'5 9.2
2018-May-15 22:00N 37°48' W 122°24'1 2.7
2018-May-15 21:31N 37°49' W 122°25'0 0.0
2018-May-15 21:00N 37°49' W 122°25'0 0.0
2018-May-15 20:30N 37°49' W 122°25'0 0.0
2018-May-15 20:01N 37°49' W 122°25'0 0.3
2018-May-15 19:30N 37°49' W 122°25'1 1.9
2018-May-15 19:00N 37°48' W 122°24'0 0.0
2018-May-15 18:30N 37°48' W 122°24'0 0.0
2018-May-15 18:01N 37°48' W 122°24'1 2.0
2018-May-15 17:31N 37°49' W 122°25'0 0.3
2018-May-15 17:01N 37°49' W 122°25'510.7
2018-May-15 16:31N 37°48' W 122°18'0 0.4
2018-May-15 16:01N 37°48' W 122°18'3 6.1
2018-May-15 15:30N 37°48' W 122°22'3 6.3
2018-May-15 15:00N 37°48' W 122°18'4 8.4
2018-May-15 14:30N 37°48' W 122°23'510.0
2018-May-15 14:01N 37°48' W 122°17'4 7.0
2018-May-15 13:30N 37°48' W 122°21'3 5.6
2018-May-15 13:00N 37°47' W 122°18'3 6.3
2018-May-15 12:30N 37°48' W 122°22'3 5.1
2018-May-15 12:00N 37°49' W 122°25'0 0.0
2018-May-15 05:32N 37°49' W 122°25'0 0.0
2018-May-15 05:30N 37°49' W 122°25'612.8
2018-May-15 05:00N 37°48' W 122°17'510.1
2018-May-15 04:29N 37°48' W 122°24'3 6.1
2018-May-15 04:01N 37°48' W 122°20'2 4.8
2018-May-15 03:30N 37°48' W 122°17'0 0.0
2018-May-15 03:00N 37°48' W 122°17'0 0.0
2018-May-15 02:30N 37°48' W 122°17'5 9.1
2018-May-15 02:00N 37°48' W 122°23'3 6.4
2018-May-15 01:31N 37°48' W 122°19'1 1.1
2018-May-15 01:00N 37°47' W 122°18'4 8.9
2018-May-15 00:30N 37°48' W 122°24'510.6
2018-May-15 00:01N 37°48' W 122°17'510.5
2018-May-14 23:30N 37°48' W 122°24'4 8.2
2018-May-14 23:01N 37°48' W 122°18'0 0.7
2018-May-14 22:30N 37°48' W 122°19'4 7.5
2018-May-14 22:00N 37°48' W 122°24'1 2.6
2018-May-14 21:30N 37°49' W 122°25'0 0.0
2018-May-14 21:00N 37°49' W 122°25'0 0.0
2018-May-14 20:30N 37°49' W 122°25'0 0.0
2018-May-14 20:00N 37°49' W 122°25'0 0.0
2018-May-14 19:30N 37°49' W 122°25'0 0.0
2018-May-14 19:00N 37°49' W 122°25'1 2.7
2018-May-14 18:30N 37°48' W 122°23'510.5
2018-May-14 18:00N 37°48' W 122°17'510.7
2018-May-14 17:30N 37°48' W 122°24'0 0.0
2018-May-14 17:00N 37°48' W 122°24'5 9.1
2018-May-14 16:30N 37°47' W 122°18'0 0.4
2018-May-14 16:01N 37°48' W 122°18'2 4.8
2018-May-14 15:31N 37°48' W 122°21'2 4.0
2018-May-14 15:01N 37°48' W 122°19'4 7.7
2018-May-14 14:31N 37°48' W 122°23'510.4
2018-May-14 14:00N 37°48' W 122°17'4 7.4
2018-May-14 13:30N 37°48' W 122°21'3 6.0
2018-May-14 13:00N 37°47' W 122°18'611.5
2018-May-14 12:31N 37°49' W 122°25'0 0.1
2018-May-14 12:00N 37°49' W 122°25'0 0.0
2018-May-14 06:34N 37°49' W 122°25'0 0.0
2018-May-14 06:30N 37°49' W 122°25'612.7
2018-May-14 06:00N 37°48' W 122°17'510.6
2018-May-14 05:31N 37°48' W 122°23'1 2.6
2018-May-14 05:01N 37°49' W 122°24'611.2
2018-May-14 04:30N 37°48' W 122°17'2 3.1
2018-May-14 04:00N 37°48' W 122°19'4 8.8
2018-May-14 03:30N 37°49' W 122°25'612.6
2018-May-14 03:00N 37°48' W 122°17'2 3.5
2018-May-14 02:30N 37°48' W 122°19'5 9.1
2018-May-14 02:00N 37°49' W 122°25'0 0.0
2018-May-14 01:30N 37°49' W 122°25'0 0.0
2018-May-14 01:00N 37°49' W 122°25'4 7.3
2018-May-14 00:31N 37°48' W 122°20'2 4.3
2018-May-14 00:00N 37°48' W 122°18'5 9.5
2018-May-13 23:30N 37°48' W 122°24'1 2.9
2018-May-13 23:01N 37°49' W 122°25'0 0.3
2018-May-13 22:30N 37°49' W 122°25'0 0.0
2018-May-13 22:00N 37°49' W 122°25'1 2.6
2018-May-13 21:31N 37°48' W 122°24'510.6
2018-May-13 21:00N 37°48' W 122°17'3 5.3
2018-May-13 20:30N 37°48' W 122°20'4 7.3
2018-May-13 20:00N 37°49' W 122°25'0 0.0
2018-May-13 19:30N 37°49' W 122°25'0 0.0
2018-May-13 19:00N 37°49' W 122°25'1 2.7
2018-May-13 18:30N 37°48' W 122°23'510.4
2018-May-13 18:00N 37°48' W 122°17'1 1.9
2018-May-13 17:31N 37°47' W 122°18'510.9
2018-May-13 17:01N 37°49' W 122°25'0 0.7
2018-May-13 16:30N 37°49' W 122°25'612.3
2018-May-13 16:00N 37°48' W 122°17'6 0.7
2018-May-13 06:45N 37°49' W 122°25'313.7
2018-May-13 06:30N 37°48' W 122°21'3 6.0
2018-May-13 06:00N 37°48' W 122°17'510.5
2018-May-13 05:30N 37°48' W 122°24'0 0.9
2018-May-13 05:00N 37°48' W 122°23'510.2
2018-May-13 04:30N 37°48' W 122°17'3 5.6
2018-May-13 04:00N 37°48' W 122°20'4 7.3
2018-May-13 03:30N 37°49' W 122°25'612.1
2018-May-13 03:00N 37°48' W 122°17'0 1.0
2018-May-13 02:30N 37°47' W 122°18'611.2
2018-May-13 02:00N 37°49' W 122°25'  
Track history (hours):
 
Tides and Currents Weather Stations Pressure Air Temp Water Temp Dewpoint Dewpoint Depression Visibility Wind Speed Wind Dir Waves Ship Positions

Cetus

Owner: San Francisco Bay Area Water Emergency Transportation Authorithy, San Francisco, CA. More information available from US FCC via Universal Licensing System and Coast Guard Vessel Documentation Center.

Last reported at 2018-May-23 01:31 UTC. Time now 2018-May-23 01:35 UTC.
Position N 37°48' W 122°19'.

Length 41 m; draft 2 m.

Type: Passenger vessel. MMSI: 367786010.

Date/timePositionNaut miles runAvg speedWind from/ knotsBaromVisibWave heightAir tempDewpointWater temp
2018-May-23 01:31N 37°48' W 122°19'1 2.2
2018-May-23 01:00N 37°47' W 122°18'5 9.2
2018-May-23 00:29N 37°48' W 122°24'511.0
2018-May-23 00:01N 37°48' W 122°17'510.4
2018-May-22 23:30N 37°48' W 122°24'4 8.8
2018-May-22 23:00N 37°48' W 122°18'0 0.2
2018-May-22 22:31N 37°47' W 122°18'4 8.6
2018-May-22 22:00N 37°48' W 122°23'1 2.4
2018-May-22 21:30N 37°49' W 122°25'611.6
2018-May-22 21:01N 37°48' W 122°18'0 0.2
2018-May-22 20:30N 37°47' W 122°18'2 3.2
2018-May-22 20:01N 37°48' W 122°20'4 8.3
2018-May-22 19:30N 37°49' W 122°25'2 4.4
2018-May-22 19:00N 37°48' W 122°22'4 7.2
2018-May-22 18:30N 37°47' W 122°18'5 9.2
2018-May-22 18:01N 37°48' W 122°23'1 2.5
2018-May-22 17:31N 37°49' W 122°25'1 2.6
2018-May-22 17:00N 37°48' W 122°24'5 9.3
2018-May-22 16:30N 37°47' W 122°18'1 1.5
2018-May-22 16:00N 37°48' W 122°19'1 1.9
2018-May-22 15:30N 37°48' W 122°20'1 2.6
2018-May-22 15:00N 37°48' W 122°18'4 7.8
2018-May-22 14:30N 37°48' W 122°23'510.1
2018-May-22 14:00N 37°48' W 122°17'4 8.3
2018-May-22 13:30N 37°48' W 122°22'3 6.8
2018-May-22 13:00N 37°47' W 122°18'1 2.7
2018-May-22 12:30N 37°48' W 122°19'4 8.7
2018-May-22 12:00N 37°49' W 122°25'0 0.0
2018-May-22 05:29N 37°49' W 122°25'613.2
2018-May-22 05:00N 37°48' W 122°17'510.1
2018-May-22 04:29N 37°48' W 122°24'3 7.1
2018-May-22 04:01N 37°48' W 122°19'2 3.9
2018-May-22 03:30N 37°48' W 122°17'0 0.0
2018-May-22 03:00N 37°48' W 122°17'0 0.0
2018-May-22 02:30N 37°48' W 122°17'4 8.9
2018-May-22 02:01N 37°48' W 122°22'2 4.5
2018-May-22 01:30N 37°48' W 122°20'1 2.7
2018-May-22 01:00N 37°47' W 122°18'5 9.0
2018-May-22 00:30N 37°48' W 122°24'510.2
2018-May-22 00:00N 37°48' W 122°17'510.3
2018-May-21 23:30N 37°48' W 122°24'3 6.8
2018-May-21 23:01N 37°48' W 122°19'1 2.5
2018-May-21 22:31N 37°47' W 122°18'4 8.9
2018-May-21 22:00N 37°48' W 122°23'0 0.1
2018-May-21 17:41N 37°48' W 122°24'1 5.4
2018-May-21 17:30N 37°49' W 122°25'0 0.7
2018-May-21 17:01N 37°49' W 122°24'510.5
2018-May-21 16:30N 37°47' W 122°18'0 0.2
2018-May-21 16:01N 37°48' W 122°18'3 5.7
2018-May-21 15:31N 37°48' W 122°21'3 5.2
2018-May-21 15:01N 37°48' W 122°18'4 8.0
2018-May-21 14:31N 37°48' W 122°23'510.1
2018-May-21 14:01N 37°48' W 122°17'3 6.3
2018-May-21 13:30N 37°48' W 122°21'2 4.9
2018-May-21 13:00N 37°47' W 122°18'4 7.1
2018-May-21 12:31N 37°48' W 122°22'2 4.3
2018-May-21 12:00N 37°49' W 122°25'0 0.0
2018-May-21 06:56N 37°49' W 122°25'0 0.0
2018-May-21 06:30N 37°49' W 122°25'612.7
2018-May-21 06:00N 37°48' W 122°17'510.6
2018-May-21 05:30N 37°48' W 122°24'1 2.9
2018-May-21 05:01N 37°49' W 122°25'612.2
2018-May-21 04:30N 37°48' W 122°17'2 3.9
2018-May-21 04:00N 37°48' W 122°20'4 8.0
2018-May-21 03:30N 37°49' W 122°25'612.3
2018-May-21 03:00N 37°48' W 122°17'1 2.3
2018-May-21 02:31N 37°48' W 122°19'5 9.7
2018-May-21 02:00N 37°49' W 122°25'0 0.0
2018-May-21 01:30N 37°49' W 122°25'0 0.0
2018-May-21 01:00N 37°49' W 122°25'3 6.0
2018-May-21 00:30N 37°48' W 122°21'3 5.5
2018-May-21 00:00N 37°47' W 122°18'5 9.2
2018-May-20 23:30N 37°48' W 122°24'1 2.8
2018-May-20 23:00N 37°49' W 122°25'0 0.3
2018-May-20 22:30N 37°49' W 122°25'0 0.0
2018-May-20 22:00N 37°49' W 122°25'1 2.3
2018-May-20 21:30N 37°48' W 122°23'5 9.7
2018-May-20 21:01N 37°48' W 122°17'1 1.1
2018-May-20 20:30N 37°47' W 122°18'510.9
2018-May-20 20:00N 37°49' W 122°25'0 0.0
2018-May-20 19:30N 37°49' W 122°25'0 0.0
2018-May-20 19:00N 37°49' W 122°25'1 2.6
2018-May-20 18:30N 37°48' W 122°24'510.6
2018-May-20 18:00N 37°48' W 122°17'2 3.8
2018-May-20 17:31N 37°48' W 122°19'4 8.8
2018-May-20 17:00N 37°49' W 122°25'1 1.5
2018-May-20 16:30N 37°49' W 122°24'611.3
2018-May-20 16:00N 37°48' W 122°17'612.7
2018-May-20 15:30N 37°49' W 122°25'0 0.0
2018-May-20 06:38N 37°49' W 122°25'0 0.1
2018-May-20 06:30N 37°49' W 122°25'612.9
2018-May-20 06:00N 37°48' W 122°17'510.3
2018-May-20 05:29N 37°48' W 122°24'1 2.6
2018-May-20 05:01N 37°49' W 122°24'611.7
2018-May-20 04:30N 37°48' W 122°17'3 5.9
2018-May-20 04:01N 37°48' W 122°21'3 6.8
2018-May-20 03:30N 37°49' W 122°25'612.6
2018-May-20 03:01N 37°48' W 122°17'2 3.8
2018-May-20 02:30N 37°48' W 122°19'4 8.8
2018-May-20 02:00N 37°49' W 122°25'0 0.0
2018-May-20 01:30N 37°49' W 122°25'0 0.0
2018-May-20 01:00N 37°49' W 122°25'4 7.9
2018-May-20 00:30N 37°48' W 122°20'2 4.1
2018-May-20 00:00N 37°48' W 122°17'5 9.9
2018-May-19 23:30N 37°48' W 122°24'2 3.3
2018-May-19 23:00N 37°49' W 122°25'0 0.8
2018-May-19 22:30N 37°49' W 122°25'0 0.0
2018-May-19 22:00N 37°49' W 122°25'1 2.6
2018-May-19 21:30N 37°48' W 122°24'510.6
2018-May-19 21:01N 37°48' W 122°17'2 4.4
2018-May-19 20:31N 37°48' W 122°20'4 8.3
2018-May-19 20:01N 37°49' W 122°25'0 0.0
2018-May-19 19:30N 37°49' W 122°25'0 0.0
2018-May-19 19:00N 37°49' W 122°25'1 2.6
2018-May-19 18:30N 37°48' W 122°23'510.5
2018-May-19 18:00N 37°48' W 122°17'1 2.5
2018-May-19 17:31N 37°48' W 122°18'510.3
2018-May-19 17:00N 37°49' W 122°25'2 4.6
2018-May-19 16:30N 37°48' W 122°22'4 8.2
2018-May-19 16:00N 37°48' W 122°17'612.8
2018-May-19 15:31N 37°49' W 122°25'0 0.0
2018-May-19 05:43N 37°49' W 122°25'210.4
2018-May-19 05:30N 37°48' W 122°22'4 8.4
2018-May-19 05:00N 37°48' W 122°17'510.5
2018-May-19 04:30N 37°48' W 122°24'3 6.4
2018-May-19 04:00N 37°48' W 122°20'2 4.4
2018-May-19 03:31N 37°48' W 122°17'0 0.0
2018-May-19 03:00N 37°48' W 122°17'0 0.8
2018-May-19 02:29N 37°48' W 122°17'510.2
2018-May-19 02:00N 37°48' W 122°24'510.4
2018-May-19 01:30N 37°48' W 122°17'3 5.9
2018-May-19 01:01N 37°48' W 122°20'1 1.8
2018-May-19 00:31N 37°48' W 122°19'1 2.7
2018-May-19 00:00N 37°47' W 122°18'5 9.2
2018-May-18 23:30N 37°48' W 122°24'5 9.9
2018-May-18 23:00N 37°48' W 122°17'1 1.3
2018-May-18 22:30N 37°48' W 122°18'4 8.5
2018-May-18 22:00N 37°48' W 122°24'1 2.6
2018-May-18 21:30N 37°49' W 122°25'0 0.0
2018-May-18 21:00N 37°49' W 122°25'0 0.0
2018-May-18 20:30N 37°49' W 122°25'0 0.0
2018-May-18 20:00N 37°49' W 122°25'0 0.0
2018-May-18 19:30N 37°49' W 122°25'0 0.0
2018-May-18 19:00N 37°49' W 122°25'1 2.6
2018-May-18 18:30N 37°48' W 122°24'510.6
2018-May-18 18:00N 37°48' W 122°17'510.6
2018-May-18 17:30N 37°48' W 122°24'0 0.0
2018-May-18 17:00N 37°48' W 122°24'4 8.4
2018-May-18 16:31N 37°48' W 122°18'0 0.7
2018-May-18 16:01N 37°48' W 122°18'3 5.2
2018-May-18 15:31N 37°48' W 122°21'1 2.8
2018-May-18 15:01N 37°48' W 122°19'3 6.0
2018-May-18 14:30N 37°48' W 122°23'510.1
2018-May-18 14:00N 37°48' W 122°17'4 7.2
2018-May-18 13:30N 37°48' W 122°21'3 6.0
2018-May-18 13:00N 37°47' W 122°18'611.3
2018-May-18 12:30N 37°49' W 122°25'0 0.5
2018-May-18 12:00N 37°49' W 122°25'0 0.0
2018-May-18 05:33N 37°49' W 122°25'0 0.0
2018-May-18 05:30N 37°49' W 122°25'612.7
2018-May-18 05:00N 37°48' W 122°17'510.5
2018-May-18 04:30N 37°48' W 122°24'3 6.5
2018-May-18 04:01N 37°48' W 122°19'2 4.1
2018-May-18 03:30N 37°48' W 122°17'0 0.0
2018-May-18 03:00N 37°48' W 122°17'0 0.0
2018-May-18 02:30N 37°48' W 122°17'4 8.7
2018-May-18 02:00N 37°48' W 122°22'4 8.0
2018-May-18 01:30N 37°48' W 122°17'1 1.4
2018-May-18 01:01N 37°48' W 122°18'4 7.9
2018-May-18 00:31N 37°48' W 122°23'4 8.8
2018-May-18 00:01N 37°48' W 122°18'5 9.4
2018-May-17 23:30N 37°48' W 122°24'5 9.3
2018-May-17 23:00N 37°48' W 122°18'0 0.6
2018-May-17 22:31N 37°47' W 122°18'4 8.5
2018-May-17 22:01N 37°48' W 122°23'0 0.1
2018-May-17 17:10N 37°48' W 122°24'0 2.4
2018-May-17 17:00N 37°48' W 122°23'5 9.0
2018-May-17 16:30N 37°47' W 122°18'1 1.3
2018-May-17 16:00N 37°48' W 122°19'3 5.7
2018-May-17 15:30N 37°48' W 122°22'3 6.2
2018-May-17 15:00N 37°47' W 122°18'4 8.1
2018-May-17 14:30N 37°48' W 122°23'510.2
2018-May-17 14:00N 37°48' W 122°17'3 6.9
2018-May-17 13:30N 37°48' W 122°21'3 5.5
2018-May-17 13:00N 37°47' W 122°18'3 5.1
2018-May-17 12:30N 37°48' W 122°21'3 6.2
2018-May-17 12:00N 37°49' W 122°25'0 0.0
2018-May-17 05:26N 37°49' W 122°25'614.8
2018-May-17 05:01N 37°48' W 122°17'510.6
2018-May-17 04:30N 37°48' W 122°24'3 6.2
2018-May-17 04:00N 37°48' W 122°20'2 4.5
2018-May-17 03:30N 37°48' W 122°17'0 0.0
2018-May-17 03:00N 37°48' W 122°17'0 0.0
2018-May-17 02:30N 37°48' W 122°17'4 8.4
2018-May-17 02:01N 37°48' W 122°22'2 4.0
2018-May-17 01:31N 37°48' W 122°20'1 2.8
2018-May-17 01:00N 37°47' W 122°18'4 8.9
2018-May-17 00:30N 37°48' W 122°24'510.7
2018-May-17 00:00N 37°48' W 122°17'510.1
2018-May-16 23:30N 37°48' W 122°23'4 8.0
2018-May-16 23:00N 37°48' W 122°18'0 0.7
2018-May-16 22:31N 37°48' W 122°19'4 7.7
2018-May-16 22:01N 37°48' W 122°23'1 1.0
2018-May-16 21:31N 37°48' W 122°23'5 9.9
2018-May-16 21:00N 37°48' W 122°17'1 1.2
2018-May-16 20:30N 37°47' W 122°18'4 8.1
2018-May-16 20:01N 37°48' W 122°23'2 3.5
2018-May-16 19:29N 37°49' W 122°25'0 0.0
2018-May-16 19:00N 37°49' W 122°25'1 2.7
2018-May-16 18:30N 37°48' W 122°24'510.6
2018-May-16 18:00N 37°48' W 122°17'510.2
2018-May-16 17:29N 37°48' W 122°24'0 0.0
2018-May-16 17:00N 37°48' W 122°24'5 9.0
2018-May-16 16:30N 37°48' W 122°18'0 0.0
2018-May-16 16:01N 37°48' W 122°18'3 5.6
2018-May-16 15:31N 37°48' W 122°21'2 3.9
2018-May-16 15:00N 37°48' W 122°19'3 6.4
2018-May-16 14:30N 37°48' W 122°23'5 9.5
2018-May-16 14:00N 37°48' W 122°17'4 7.2
2018-May-16 13:31N 37°48' W 122°21'3 5.6
2018-May-16 13:00N 37°47' W 122°18'5 9.3
2018-May-16 12:31N 37°49' W 122°23'1 2.1
2018-May-16 12:00N 37°49' W 122°25'0 0.0
2018-May-16 11:30N 37°49' W 122°25'0 0.0
2018-May-16 05:24N 37°49' W 122°25'616.1
2018-May-16 05:00N 37°48' W 122°17'510.6
2018-May-16 04:30N 37°48' W 122°24'3 5.8
2018-May-16 04:00N 37°48' W 122°20'2 4.9
2018-May-16 03:31N 37°48' W 122°17'0 0.0
2018-May-16 03:00N 37°48' W 122°17'0 0.0
2018-May-16 02:30N 37°48' W 122°17'4 8.5
2018-May-16 02:01N 37°48' W 122°22'3 5.5
2018-May-16 01:30N 37°48' W 122°19'1 1.6
2018-May-16 01:00N 37°47' W 122°18'5 9.2
2018-May-16 00:30N 37°48' W 122°24'510.7
2018-May-16 00:01N 37°48' W 122°17'510.6
2018-May-15 23:30N 37°48' W 122°24'3 5.5
2018-May-15 23:01N 37°48' W 122°20'2 3.8
2018-May-15 22:30N 37°47' W 122°18'5 9.2
2018-May-15 22:00N 37°48' W 122°24'1 2.7
2018-May-15 21:31N 37°49' W 122°25'0 0.0
2018-May-15 21:00N 37°49' W 122°25'0 0.0
2018-May-15 20:30N 37°49' W 122°25'0 0.0
2018-May-15 20:01N 37°49' W 122°25'0 0.3
2018-May-15 19:30N 37°49' W 122°25'1 1.9
2018-May-15 19:00N 37°48' W 122°24'0 0.0
2018-May-15 18:30N 37°48' W 122°24'0 0.0
2018-May-15 18:01N 37°48' W 122°24'1 2.0
2018-May-15 17:31N 37°49' W 122°25'0 0.3
2018-May-15 17:01N 37°49' W 122°25'510.7
2018-May-15 16:31N 37°48' W 122°18'0 0.4
2018-May-15 16:01N 37°48' W 122°18'3 6.1
2018-May-15 15:30N 37°48' W 122°22'3 6.3
2018-May-15 15:00N 37°48' W 122°18'4 8.4
2018-May-15 14:30N 37°48' W 122°23'510.0
2018-May-15 14:01N 37°48' W 122°17'4 7.0
2018-May-15 13:30N 37°48' W 122°21'3 5.6
2018-May-15 13:00N 37°47' W 122°18'3 6.3
2018-May-15 12:30N 37°48' W 122°22'3 5.1
2018-May-15 12:00N 37°49' W 122°25'0 0.0
2018-May-15 05:32N 37°49' W 122°25'0 0.0
2018-May-15 05:30N 37°49' W 122°25'612.8
2018-May-15 05:00N 37°48' W 122°17'510.1
2018-May-15 04:29N 37°48' W 122°24'3 6.1
2018-May-15 04:01N 37°48' W 122°20'2 4.8
2018-May-15 03:30N 37°48' W 122°17'0 0.0
2018-May-15 03:00N 37°48' W 122°17'0 0.0
2018-May-15 02:30N 37°48' W 122°17'5 9.1
2018-May-15 02:00N 37°48' W 122°23'3 6.4
2018-May-15 01:31N 37°48' W 122°19'1 1.1
2018-May-15 01:00N 37°47' W 122°18'4 8.9
2018-May-15 00:30N 37°48' W 122°24'510.6
2018-May-15 00:01N 37°48' W 122°17'510.5
2018-May-14 23:30N 37°48' W 122°24'4 8.2
2018-May-14 23:01N 37°48' W 122°18'0 0.7
2018-May-14 22:30N 37°48' W 122°19'4 7.5
2018-May-14 22:00N 37°48' W 122°24'1 2.6
2018-May-14 21:30N 37°49' W 122°25'0 0.0
2018-May-14 21:00N 37°49' W 122°25'0 0.0
2018-May-14 20:30N 37°49' W 122°25'0 0.0
2018-May-14 20:00N 37°49' W 122°25'0 0.0
2018-May-14 19:30N 37°49' W 122°25'0 0.0
2018-May-14 19:00N 37°49' W 122°25'1 2.7
2018-May-14 18:30N 37°48' W 122°23'510.5
2018-May-14 18:00N 37°48' W 122°17'510.7
2018-May-14 17:30N 37°48' W 122°24'0 0.0
2018-May-14 17:00N 37°48' W 122°24'5 9.1
2018-May-14 16:30N 37°47' W 122°18'0 0.4
2018-May-14 16:01N 37°48' W 122°18'2 4.8
2018-May-14 15:31N 37°48' W 122°21'2 4.0
2018-May-14 15:01N 37°48' W 122°19'4 7.7
2018-May-14 14:31N 37°48' W 122°23'510.4
2018-May-14 14:00N 37°48' W 122°17'4 7.4
2018-May-14 13:30N 37°48' W 122°21'3 6.0
2018-May-14 13:00N 37°47' W 122°18'611.5
2018-May-14 12:31N 37°49' W 122°25'0 0.1
2018-May-14 12:00N 37°49' W 122°25'0 0.0
2018-May-14 06:34N 37°49' W 122°25'0 0.0
2018-May-14 06:30N 37°49' W 122°25'612.7
2018-May-14 06:00N 37°48' W 122°17'510.6
2018-May-14 05:31N 37°48' W 122°23'1 2.6
2018-May-14 05:01N 37°49' W 122°24'611.2
2018-May-14 04:30N 37°48' W 122°17'2 3.1
2018-May-14 04:00N 37°48' W 122°19'4 8.8
2018-May-14 03:30N 37°49' W 122°25'612.6
2018-May-14 03:00N 37°48' W 122°17'2 3.5
2018-May-14 02:30N 37°48' W 122°19'5 9.1
2018-May-14 02:00N 37°49' W 122°25'0 0.0
2018-May-14 01:30N 37°49' W 122°25'0 0.0
2018-May-14 01:00N 37°49' W 122°25'4 7.3
2018-May-14 00:31N 37°48' W 122°20'2 4.3
2018-May-14 00:00N 37°48' W 122°18'5 9.5
2018-May-13 23:30N 37°48' W 122°24'1 2.9
2018-May-13 23:01N 37°49' W 122°25'0 0.3
2018-May-13 22:30N 37°49' W 122°25'0 0.0
2018-May-13 22:00N 37°49' W 122°25'1 2.6
2018-May-13 21:31N 37°48' W 122°24'510.6
2018-May-13 21:00N 37°48' W 122°17'3 5.3
2018-May-13 20:30N 37°48' W 122°20'4 7.3
2018-May-13 20:00N 37°49' W 122°25'0 0.0
2018-May-13 19:30N 37°49' W 122°25'0 0.0
2018-May-13 19:00N 37°49' W 122°25'1 2.7
2018-May-13 18:30N 37°48' W 122°23'510.4
2018-May-13 18:00N 37°48' W 122°17'1 1.9
2018-May-13 17:31N 37°47' W 122°18'510.9
2018-May-13 17:01N 37°49' W 122°25'0 0.7
2018-May-13 16:30N 37°49' W 122°25'612.3
2018-May-13 16:00N 37°48' W 122°17'6 0.7
2018-May-13 06:45N 37°49' W 122°25'313.7
2018-May-13 06:30N 37°48' W 122°21'3 6.0
2018-May-13 06:00N 37°48' W 122°17'510.5
2018-May-13 05:30N 37°48' W 122°24'0 0.9
2018-May-13 05:00N 37°48' W 122°23'510.2
2018-May-13 04:30N 37°48' W 122°17'3 5.6
2018-May-13 04:00N 37°48' W 122°20'4 7.3
2018-May-13 03:30N 37°49' W 122°25'612.1
2018-May-13 03:00N 37°48' W 122°17'0 1.0
2018-May-13 02:30N 37°47' W 122°18'611.2
2018-May-13 02:00N 37°49' W 122°25'  

Dump ship's entire track history